Stormwatcher's Retreat Logo




                  Temp     Hi    Low   Out    Dew  Wind  Wind   Wind    Hi    Hi   Wind   Heat    THW   THSW                Rain  Solar   Solar Hi Solar   UV    UV    Hi     Heat    Cool    In     In    In     In     In   In Air          Wind  Wind    ISS   Arc.
  Date    Time     Out   Temp   Temp   Hum    Pt. Speed   Dir    Run Speed   Dir  Chill  Index  Index  Index   Bar    Rain  Rate   Rad.  Energy    Rad.  Index  Dose   UV     D-D     D-D    Temp   Hum    Dew   Heat    EMC Density     ET   Samp   Tx   Recept  Int.
------------------------------------------------------------------------------------------------------------------------------------------------------------------------------------------------------------------------------------------------------------------------
 9/01/26 12:10a   57.9   57.9   57.7    96   56.8   7.0     S   1.17  13.0     S   56.7   58.2   57.0   54.8  29.889  0.00  0.00     0     0.00      0     0.0  0.00   0.0   0.049   0.000   73.2    56   56.6   73.3  10.29  .0732    0.000   202    7    100.0   10 
 9/01/26 12:20a   57.4   57.9   57.4    96   56.3   7.0     S   1.17  12.0   SSE   56.1   57.7   56.4   54.2  29.889  0.00  0.00     0     0.00      0     0.0  0.00   0.0   0.053   0.000   73.2    56   56.6   73.3  10.29  .0732    0.000   201    7    100.0   10 
 9/01/26 12:30a   57.3   57.5   57.1    96   56.2   9.0     S   1.50  12.0     S   54.5   57.6   54.8   52.8  29.888  0.00  0.00     0     0.00      0     0.0  0.00   0.0   0.053   0.000   73.2    56   56.6   73.3  10.29  .0732    0.000   204    7    100.0   10 
 9/01/26 12:40a   57.3   57.4   57.1    96   56.2   8.0     S   1.33  12.0     S   55.3   57.6   55.6   53.5  29.889  0.00  0.00     0     0.00      0     0.0  0.00   0.0   0.053   0.000   73.1    56   56.5   73.2  10.29  .0733    0.000   202    7    100.0   10 
 9/01/26 12:50a   57.3   57.5   57.3    97   56.5  10.0     S   1.67  14.0   SSE   53.8   57.6   54.1   52.2  29.892  0.00  0.00     0     0.00      0     0.0  0.00   0.0   0.053   0.000   73.1    56   56.5   73.2  10.29  .0733    0.000   200    7    100.0   10 
 9/01/26  1:00a   57.4   57.4   57.2    97   56.6  10.0     S   1.67  14.0   SSE   53.9   57.7   54.2   52.3  29.894  0.00  0.00     0     0.00      0     0.0  0.00   0.0   0.053   0.000   73.1    56   56.5   73.2  10.29  .0733    0.000   203    7    100.0   10 
 9/01/26  1:10a   57.5   57.5   57.4    97   56.7   9.0     S   1.50  13.0   SSW   54.7   57.8   55.0   53.0  29.897  0.00  0.00     0     0.00      0     0.0  0.00   0.0   0.052   0.000   73.1    56   56.5   73.2  10.29  .0733    0.000   202    7    100.0   10 
 9/01/26  1:20a   57.3   57.5   57.1    96   56.2   9.0     S   1.50  16.0   SSE   54.5   57.6   54.8   52.8  29.899  0.00  0.00     0     0.00      0     0.0  0.00   0.0   0.053   0.000   73.0    56   56.4   73.1  10.29  .0733    0.000   204    7    100.0   10 
 9/01/26  1:30a   57.0   57.3   57.0    97   56.2   9.0     S   1.50  14.0   SSE   54.1   57.3   54.4   52.4  29.899  0.00  0.00     0     0.00      0     0.0  0.00   0.0   0.056   0.000   73.0    56   56.4   73.1  10.29  .0733    0.000   201    7    100.0   10 
 9/01/26  1:40a   57.2   57.3   57.0    97   56.4   8.0     S   1.33  12.0     S   55.1   57.5   55.4   53.3  29.897  0.00  0.00     0     0.00      0     0.0  0.00   0.0   0.054   0.000   73.0    56   56.4   73.1  10.29  .0733    0.000   202    7    100.0   10 
 9/01/26  1:50a   57.4   57.4   57.1    97   56.6   6.0     S   1.00  10.0     S   56.5   57.7   56.8   54.6  29.896  0.00  0.00     0     0.00      0     0.0  0.00   0.0   0.053   0.000   73.0    56   56.4   73.1  10.29  .0733    0.000   202    7    100.0   10 
 9/01/26  2:00a   57.5   57.5   57.3    97   56.7   7.0     S   1.17  11.0   SSE   56.2   57.8   56.5   54.3  29.898  0.00  0.00     0     0.00      0     0.0  0.00   0.0   0.052   0.000   73.0    56   56.4   73.1  10.29  .0733    0.000   204    7    100.0   10 
 9/01/26  2:10a   57.7   57.7   57.3    97   56.9   6.0     S   1.00  12.0   SSE   56.8   58.0   57.1   54.9  29.897  0.00  0.00     0     0.00      0     0.0  0.00   0.0   0.051   0.000   73.0    56   56.4   73.1  10.29  .0733    0.000   203    7    100.0   10 
 9/01/26  2:20a   57.6   57.7   57.6    97   56.8   6.0     S   1.00  10.0   SSE   56.7   57.9   57.0   54.8  29.898  0.00  0.00     0     0.00      0     0.0  0.00   0.0   0.051   0.000   72.9    56   56.3   72.9  10.29  .0733    0.000   204    7    100.0   10 
 9/01/26  2:30a   57.7   57.7   57.5    97   56.9   6.0     S   1.00  11.0     S   56.8   58.0   57.1   54.9  29.898  0.00  0.00     0     0.00      0     0.0  0.00   0.0   0.051   0.000   72.9    56   56.3   72.9  10.29  .0733    0.000   200    7    100.0   10 
 9/01/26  2:40a   57.7   57.8   57.7    97   56.9   6.0     S   1.00  13.0     S   56.8   58.0   57.1   54.9  29.897  0.00  0.00     0     0.00      0     0.0  0.00   0.0   0.051   0.000   72.9    56   56.3   72.9  10.29  .0733    0.000   201    7    100.0   10 
 9/01/26  2:50a   57.8   57.8   57.7    97   57.0   6.0     S   1.00  11.0     S   57.0   58.1   57.3   55.1  29.895  0.00  0.00     0     0.00      0     0.0  0.00   0.0   0.050   0.000   72.9    57   56.8   73.0  10.43  .0733    0.000   203    7    100.0   10 
 9/01/26  3:00a   57.7   57.8   57.7    97   56.9   6.0     S   1.00  10.0   SSE   56.8   58.0   57.1   54.9  29.893  0.00  0.00     0     0.00      0     0.0  0.00   0.0   0.051   0.000   72.8    56   56.2   72.8  10.29  .0733    0.000   202    7    100.0   10 
 9/01/26  3:10a   57.7   57.8   57.6    97   56.9   6.0     S   1.00  11.0     S   56.8   58.0   57.1   54.9  29.893  0.00  0.00     0     0.00      0     0.0  0.00   0.0   0.051   0.000   72.8    56   56.2   72.8  10.29  .0733    0.000   202    7    100.0   10 
 9/01/26  3:20a   57.7   57.8   57.7    97   56.9   6.0     S   1.00  13.0     S   56.8   58.0   57.1   54.9  29.896  0.00  0.00     0     0.00      0     0.0  0.00   0.0   0.051   0.000   72.7    57   56.6   72.7  10.44  .0733    0.000   204    7    100.0   10 
 9/01/26  3:30a   57.9   57.9   57.7    97   57.1   5.0     S   0.83  10.0     S   57.5   58.2   57.8   55.6  29.897  0.00  0.00     0     0.00      0     0.0  0.00   0.0   0.049   0.000   72.7    57   56.6   72.7  10.44  .0733    0.000   203    7    100.0   10 
 9/01/26  3:40a   57.9   57.9   57.7    97   57.1   5.0     S   0.83  10.0     S   57.5   58.2   57.8   55.6  29.897  0.00  0.00     0     0.00      0     0.0  0.00   0.0   0.049   0.000   72.7    57   56.6   72.7  10.44  .0733    0.000   203    7    100.0   10 
 9/01/26  3:50a   57.7   57.9   57.7    97   56.9   5.0     S   0.83  10.0   SSE   57.2   58.0   57.5   55.3  29.895  0.00  0.00     0     0.00      0     0.0  0.00   0.0   0.051   0.000   72.7    57   56.6   72.7  10.44  .0733    0.000   202    7    100.0   10 
 9/01/26  4:00a   57.5   57.7   57.4    97   56.7   4.0     S   0.67   9.0   SSE   57.5   57.8   57.8   55.6  29.894  0.01  0.00     0     0.00      0     0.0  0.00   0.0   0.052   0.000   72.7    56   56.1   72.6  10.30  .0733    0.000   200    7    100.0   10 
 9/01/26  4:10a   57.5   57.7   57.5    97   56.7   5.0     S   0.83   9.0   SSE   57.0   57.8   57.3   55.1  29.894  0.00  0.00     0     0.00      0     0.0  0.00   0.0   0.052   0.000   72.7    56   56.1   72.6  10.30  .0733    0.000   203    7    100.0   10 
 9/01/26  4:20a   57.5   57.6   57.4    97   56.7   6.0     S   1.00  12.0     S   56.6   57.8   56.9   54.7  29.894  0.00  0.00     0     0.00      0     0.0  0.00   0.0   0.052   0.000   72.6    57   56.5   72.6  10.45  .0733    0.000   205    7    100.0   10 
 9/01/26  4:30a   57.5   57.6   57.4    97   56.7   6.0     S   1.00  10.0   SSE   56.6   57.8   56.9   54.7  29.895  0.00  0.00     0     0.00      0     0.0  0.00   0.0   0.052   0.000   72.6    57   56.5   72.6  10.45  .0733    0.000   202    7    100.0   10 
 9/01/26  4:40a   57.4   57.5   57.4    97   56.6   5.0     S   0.83   9.0     S   56.9   57.7   57.2   55.0  29.893  0.00  0.00     0     0.00      0     0.0  0.00   0.0   0.053   0.000   72.6    56   56.0   72.5  10.30  .0734    0.000   202    7    100.0   10 
 9/01/26  4:50a   57.3   57.4   57.2    97   56.5   4.0     S   0.67   8.0   SSE   57.3   57.6   57.6   55.4  29.894  0.00  0.00     0     0.00      0     0.0  0.00   0.0   0.053   0.000   72.6    57   56.5   72.6  10.45  .0733    0.000   200    7    100.0   10 
 9/01/26  5:00a   57.4   57.4   57.3    97   56.6   5.0     S   0.83   9.0   SSE   56.9   57.7   57.2   55.0  29.893  0.00  0.00     0     0.00      0     0.0  0.00   0.0   0.053   0.000   72.6    57   56.5   72.6  10.45  .0733    0.000   204    7    100.0   10 
 9/01/26  5:10a   57.3   57.4   57.3    97   56.5   5.0     S   0.83  10.0   SSW   56.8   57.6   57.1   54.9  29.895  0.00  0.00     0     0.00      0     0.0  0.00   0.0   0.053   0.000   72.5    57   56.4   72.4  10.45  .0734    0.000   203    7    100.0   10 
 9/01/26  5:20a   57.4   57.4   57.3    97   56.6   5.0     S   0.83  11.0     S   56.9   57.7   57.2   55.0  29.891  0.00  0.00     0     0.00      0     0.0  0.00   0.0   0.053   0.000   72.5    57   56.4   72.4  10.45  .0734    0.000   202    7    100.0   10 
 9/01/26  5:30a   57.3   57.4   57.3    97   56.5   4.0     S   0.67   8.0     S   57.3   57.6   57.6   55.4  29.892  0.00  0.00     0     0.00      0     0.0  0.00   0.0   0.053   0.000   72.5    57   56.4   72.4  10.45  .0734    0.000   201    7    100.0   10 
 9/01/26  5:40a   57.3   57.4   57.3    97   56.5   5.0     S   0.83   8.0   SSE   56.8   57.6   57.1   54.9  29.891  0.00  0.00     0     0.00      0     0.0  0.00   0.0   0.053   0.000   72.5    56   55.9   72.3  10.30  .0734    0.000   200    7    100.0   10 
 9/01/26  5:50a   57.3   57.4   57.3    97   56.5   5.0     S   0.83   9.0     S   56.8   57.6   57.1   54.9  29.893  0.00  0.00     0     0.00      0     0.0  0.00   0.0   0.053   0.000   72.6    56   56.0   72.5  10.30  .0734    0.000   198    7    100.0   10 
 9/01/26  6:00a   57.3   57.4   57.2    97   56.5   4.0     S   0.67   8.0     S   57.3   57.6   57.6   55.4  29.894  0.00  0.00     0     0.00      0     0.0  0.00   0.0   0.053   0.000   72.6    56   56.0   72.5  10.30  .0734    0.000   200    7    100.0   10 
 9/01/26  6:10a   57.2   57.3   57.2    97   56.4   5.0     S   0.83   9.0   SSE   56.6   57.5   56.9   54.7  29.893  0.00  0.00     0     0.00      0     0.0  0.00   0.0   0.054   0.000   72.7    56   56.1   72.6  10.30  .0733    0.000   201    7    100.0   10 
 9/01/26  6:20a   57.3   57.4   57.2    97   56.5   5.0     S   0.83   9.0   SSE   56.8   57.6   57.1   54.9  29.894  0.00  0.00     0     0.00      0     0.0  0.00   0.0   0.053   0.000   72.7    56   56.1   72.6  10.30  .0733    0.000   202    7    100.0   10 
 9/01/26  6:30a   57.4   57.5   57.3    97   56.6   5.0     S   0.83   9.0     S   56.9   57.7   57.2   55.0  29.896  0.00  0.00     0     0.00      0     0.0  0.00   0.0   0.053   0.000   72.7    56   56.1   72.6  10.30  .0734    0.000   202    7    100.0   10 
 9/01/26  6:40a   57.5   57.5   57.3    96   56.4   5.0     S   0.83  10.0     S   57.0   57.8   57.3   55.1  29.900  0.00  0.00     0     0.00      0     0.0  0.00   0.0   0.052   0.000   72.7    56   56.1   72.6  10.30  .0734    0.000   203    7    100.0   10 
 9/01/26  6:50a   57.7   57.7   57.5    96   56.6   5.0     S   0.83  11.0   SSE   57.2   58.0   57.5   55.3  29.902  0.00  0.00     0     0.00      0     0.0  0.00   0.0   0.051   0.000   72.7    56   56.1   72.6  10.30  .0734    0.000   204    7    100.0   10 
 9/01/26  7:00a   57.8   57.8   57.7    96   56.7   4.0     S   0.67   9.0     S   57.8   58.1   58.1   55.9  29.903  0.00  0.00     2     0.03      5     0.0  0.00   0.0   0.050   0.000   72.7    56   56.1   72.6  10.30  .0734    0.000   202    7    100.0   10 
 9/01/26  7:10a   57.7   57.8   57.7    96   56.6   5.0     S   0.83   9.0   SSE   57.2   58.0   57.5   55.3  29.904  0.00  0.00     1     0.01      5     0.0  0.00   0.0   0.051   0.000   72.8    56   56.2   72.8  10.29  .0734    0.000   204    7    100.0   10 
 9/01/26  7:20a   57.7   57.8   57.6    96   56.6   5.0     S   0.83   8.0   SSE   57.2   58.0   57.5   56.1  29.907  0.00  0.00     9     0.13     12     0.0  0.00   0.0   0.051   0.000   72.7    56   56.1   72.6  10.30  .0734    0.000   203    7    100.0   10 
 9/01/26  7:30a   57.8   57.8   57.7    96   56.7   6.0     S   1.00  10.0     S   57.0   58.1   57.3   56.1  29.909  0.00  0.00    13     0.19     16     0.0  0.00   0.0   0.050   0.000   72.7    56   56.1   72.6  10.30  .0734    0.000   204    7    100.0   10 
 9/01/26  7:40a   57.9   57.9   57.8    96   56.8   4.0     S   0.67   9.0     S   57.9   58.2   58.2   57.4  29.911  0.00  0.00    22     0.32     26     0.0  0.00   0.0   0.049   0.000   72.8    56   56.2   72.8  10.29  .0734    0.000   203    7    100.0   10 
 9/01/26  7:50a   58.1   58.1   57.9    96   57.0   4.0     S   0.67  10.0     S   58.1   58.4   58.4   58.0  29.912  0.00  0.00    32     0.46     37     0.0  0.00   0.0   0.048   0.000   72.7    56   56.1   72.6  10.30  .0734    0.000   201    7    100.0   10 
 9/01/26  8:00a   58.1   58.1   58.0    95   56.7   5.0     S   0.83   8.0   SSE   57.7   58.4   58.0   58.0  29.913  0.00  0.00    42     0.60     47     0.0  0.00   0.0   0.048   0.000   72.6    56   56.0   72.5  10.30  .0734    0.001   203    7    100.0   10 
 9/01/26  8:10a   58.0   58.1   57.9    95   56.6   5.0     S   0.83  10.0   SSE   57.6   58.3   57.9   58.1  29.915  0.00  0.00    49     0.70     51     0.0  0.00   0.0   0.049   0.000   72.5    56   55.9   72.3  10.30  .0734    0.000   204    7    100.0   10 
 9/01/26  8:20a   58.1   58.1   57.9    95   56.7   4.0     S   0.67   9.0   SSE   58.1   58.4   58.4   58.5  29.915  0.00  0.00    48     0.69     54     0.0  0.00   0.0   0.048   0.000   72.5    56   55.9   72.3  10.30  .0734    0.000   199    7    100.0   10 
 9/01/26  8:30a   58.1   58.2   58.1    95   56.7   4.0     S   0.67   7.0   SSE   58.1   58.4   58.4   58.4  29.915  0.00  0.00    47     0.67     53     0.0  0.00   0.0   0.048   0.000   72.5    56   55.9   72.3  10.30  .0734    0.000   202    7    100.0   10 
 9/01/26  8:40a   58.3   58.3   58.1    95   56.9   5.0     S   0.83  10.0     S   58.0   58.6   58.3   58.0  29.917  0.00  0.00    41     0.59     47     0.0  0.00   0.0   0.047   0.000   72.5    56   55.9   72.3  10.30  .0734    0.000   201    7    100.0   10 
 9/01/26  8:50a   58.4   58.4   58.3    95   57.0   4.0     S   0.67   9.0   SSE   58.4   58.7   58.7   58.8  29.915  0.00  0.00    53     0.76     63     0.0  0.00   0.0   0.046   0.000   72.4    56   55.8   72.2  10.30  .0735    0.000   200    7    100.0   10 
 9/01/26  9:00a   58.5   58.5   58.4    95   57.1   4.0     S   0.67   8.0   SSE   58.5   58.8   58.8   59.3  29.915  0.00  0.00    67     0.96     74     0.0  0.00   0.0   0.045   0.000   72.5    56   55.9   72.3  10.30  .0734    0.001   203    7    100.0   10 
 9/01/26  9:10a   58.5   58.5   58.4    95   57.1   4.0     S   0.67   9.0     S   58.5   58.8   58.8   61.1  29.912  0.00  0.00   122     1.75    174     0.4  0.03   0.7   0.045   0.000   72.5    56   55.9   72.3  10.30  .0734    0.000   204    7    100.0   10 
 9/01/26  9:20a   58.8   58.8   58.5    95   57.4   4.0     S   0.67   8.0   SSE   58.8   59.2   59.2   63.2  29.913  0.00  0.00   182     2.61    213     0.7  0.05   0.8   0.043   0.000   72.5    56   55.9   72.3  10.30  .0734    0.000   203    7    100.0   10 
 9/01/26  9:30a   58.7   58.8   58.7    95   57.3   4.0     S   0.67  10.0   SSE   58.7   59.1   59.1   61.6  29.911  0.00  0.00   135     1.94    135     0.6  0.04   0.6   0.044   0.000   72.6    56   56.0   72.5  10.30  .0734    0.000   202    7    100.0   10 
 9/01/26  9:40a   58.8   58.8   58.7    95   57.4   4.0     S   0.67   7.0   SSE   58.8   59.2   59.2   62.1  29.910  0.00  0.00   155     2.22    178     0.8  0.06   0.9   0.043   0.000   72.6    56   56.0   72.5  10.30  .0734    0.000   203    7    100.0   10 
 9/01/26  9:50a   58.8   58.8   58.7    95   57.4   4.0     S   0.67   7.0   SSW   58.8   59.2   59.2   63.3  29.911  0.00  0.00   203     2.91    229     1.0  0.07   1.2   0.043   0.000   72.6    56   56.0   72.5  10.30  .0734    0.000   202    7    100.0   10 
 9/01/26 10:00a   59.0   59.1   58.8    95   57.6   4.0     S   0.67   8.0     S   59.0   59.4   59.4   65.9  29.910  0.00  0.00   301     4.31    390     1.5  0.11   1.8   0.042   0.000   72.7    56   56.1   72.6  10.30  .0734    0.004   205    7    100.0   10 
 9/01/26 10:10a   59.1   59.4   59.1    94   57.4   5.0     S   0.83   8.0   SSE   58.9   59.5   59.3   69.5  29.910  0.00  0.00   510     7.31    631     2.3  0.16   2.6   0.041   0.000   72.8    56   56.2   72.8  10.29  .0734    0.000   204    7    100.0   10 
 9/01/26 10:20a   58.5   59.1   58.5    94   56.8   6.0   SSW   1.00  10.0   SSE   57.8   58.8   58.1   65.9  29.911  0.00  0.00   381     5.46    485     2.0  0.14   2.2   0.045   0.000   73.0    56   56.4   73.1  10.29  .0733    0.000   203    7    100.0   10 
 9/01/26 10:30a   58.2   58.5   58.2    94   56.5   7.0   SSW   1.17  10.0   SSE   57.0   58.5   57.3   65.3  29.912  0.00  0.00   410     5.88    459     2.2  0.16   2.4   0.047   0.000   73.1    56   56.5   73.2  10.29  .0733    0.000   202    7    100.0   10 
 9/01/26 10:40a   58.2   58.3   58.1    95   56.8   6.0     S   1.00  10.0     S   57.4   58.5   57.7   65.6  29.910  0.00  0.00   399     5.72    462     2.3  0.16   2.6   0.047   0.000   73.2    56   56.6   73.3  10.29  .0733    0.000   203    7    100.0   10 
 9/01/26 10:50a   58.4   58.4   58.2    95   57.0   7.0     S   1.17  10.0     S   57.3   58.7   57.6   64.2  29.908  0.00  0.00   352     5.05    408     2.4  0.17   2.9   0.046   0.000   73.3    56   56.7   73.4  10.28  .0733    0.000   201    7    100.0   10 
 9/01/26 11:00a   58.0   58.4   58.0    94   56.3   7.0   SSW   1.17  11.0     S   56.8   58.3   57.1   63.4  29.911  0.00  0.00   341     4.89    413     2.3  0.16   2.4   0.049   0.000   73.4    56   56.7   73.6  10.28  .0733    0.009   204    7    100.0   10 
 9/01/26 11:10a   58.0   58.2   58.0    95   56.6   8.0     S   1.33  11.0     S   56.1   58.3   56.4   61.1  29.914  0.00  0.00   277     3.97    295     2.1  0.15   2.2   0.049   0.000   73.5    56   56.8   73.7  10.28  .0733    0.000   200    7    100.0   10 
 9/01/26 11:20a   58.4   58.5   58.0    95   57.0   9.0     S   1.50  11.0   SSE   55.8   58.7   56.1   62.0  29.915  0.00  0.00   355     5.09    392     2.5  0.18   2.6   0.046   0.000   73.5    56   56.8   73.7  10.28  .0733    0.000   204    7    100.0   10 
 9/01/26 11:30a   58.5   58.6   58.4    94   56.8   9.0     S   1.50  13.0     S   55.9   58.8   56.2   64.0  29.917  0.00  0.00   469     6.72    504     3.0  0.21   3.1   0.045   0.000   73.6    56   56.9   73.8  10.28  .0732    0.000   201    7    100.0   10 
 9/01/26 11:40a   58.4   58.6   58.4    94   56.7   9.0     S   1.50  14.0   SSE   55.8   58.7   56.1   64.0  29.918  0.00  0.00   482     6.91    515     3.2  0.23   3.3   0.046   0.000   73.7    56   57.0   73.9  10.28  .0732    0.000   203    7    100.0   10 
 9/01/26 11:50a   58.6   58.6   58.4    94   56.9   9.0     S   1.50  14.0   SSE   56.0   58.9   56.3   62.6  29.912  0.00  0.00   383     5.49    645     3.0  0.21   3.6   0.044   0.000   73.8    56   57.1   74.1  10.27  .0732    0.000   200    7    100.0   10 
 9/01/26 12:00p   58.6   58.7   58.5    94   56.9   9.0     S   1.50  13.0     S   56.0   58.9   56.3   61.8  29.912  0.00  0.00   334     4.79    380     3.1  0.22   4.0   0.044   0.000   73.8    56   57.1   74.1  10.27  .0732    0.008   203    7    100.0   10 
 9/01/26 12:10p   58.7   58.7   58.5    94   57.0   9.0     S   1.50  15.0   SSE   56.1   59.0   56.4   62.2  29.913  0.00  0.00   360     5.16    385     3.0  0.21   3.1   0.044   0.000   73.9    56   57.2   74.2  10.27  .0732    0.000   203    7    100.0   10 
 9/01/26 12:20p   58.9   58.9   58.6    94   57.2   8.0     S   1.33  11.0     S   57.2   59.3   57.6   64.8  29.913  0.00  0.00   425     6.09    469     3.2  0.23   3.4   0.042   0.000   74.0    56   57.3   74.3  10.27  .0732    0.000   203    7    100.0   10 
 9/01/26 12:30p   58.4   58.8   58.4    94   56.7  10.0     S   1.67  13.0     S   55.1   58.7   55.4   61.8  29.912  0.00  0.00   410     5.88    504     3.1  0.22   3.5   0.046   0.000   74.0    56   57.3   74.3  10.27  .0732    0.000   202    7    100.0   10 
 9/01/26 12:40p   58.6   58.6   58.4    94   56.9  10.0     S   1.67  14.0   SSE   55.3   58.9   55.6   60.7  29.911  0.00  0.00   328     4.70    371     2.6  0.19   2.8   0.044   0.000   74.1    56   57.4   74.4  10.27  .0731    0.000   202    7    100.0   10 
 9/01/26 12:50p   59.3   59.3   58.6    93   57.3   9.0     S   1.50  15.0   SSE   56.9   59.6   57.2   64.1  29.907  0.00  0.00   427     6.12    568     3.1  0.22   3.8   0.040   0.000   74.2    56   57.5   74.6  10.27  .0731    0.000   202    7    100.0   10 
 9/01/26  1:00p   59.6   59.7   59.3    92   57.3  11.0     S   1.83  17.0     S   55.9   59.9   56.2   62.9  29.907  0.00  0.00   442     6.34    526     3.2  0.23   3.7   0.038   0.000   74.3    56   57.6   74.7  10.26  .0731    0.008   203    7    100.0   10 
 9/01/26  1:10p   59.3   59.7   59.3    92   57.0  10.0     S   1.67  17.0     S   56.2   59.6   56.5   60.5  29.911  0.00  0.00   271     3.88    357     2.3  0.16   2.8   0.040   0.000   74.4    56   57.7   74.8  10.26  .0731    0.000   202    7    100.0   10 
 9/01/26  1:20p   59.4   59.4   59.2    93   57.4  10.0     S   1.67  14.0     S   56.3   59.7   56.6   61.1  29.911  0.00  0.00   293     4.20    339     2.3  0.16   2.7   0.039   0.000   74.4    56   57.7   74.8  10.26  .0731    0.000   202    7    100.0   10 
 9/01/26  1:30p   59.5   59.5   59.3    93   57.5   9.0     S   1.50  13.0   SSE   57.1   59.8   57.4   64.9  29.910  0.00  0.00   464     6.65    531     3.4  0.24   3.9   0.038   0.000   74.4    56   57.7   74.8  10.26  .0731    0.000   202    7    100.0   10 
 9/01/26  1:40p   59.4   59.7   59.2    93   57.4  10.0     S   1.67  16.0   SSE   56.3   59.7   56.6   65.7  29.907  0.00  0.00   620     8.89    689     4.4  0.31   5.1   0.039   0.000   74.5    56   57.8   74.9  10.26  .0731    0.000   203    7    100.0   10 
 9/01/26  1:50p   59.5   59.7   59.4    93   57.5  10.0     S   1.67  15.0   SSE   56.4   59.8   56.7   66.6  29.907  0.00  0.00   767    11.00   1100     4.4  0.31   6.2   0.038   0.000   74.6    55   57.4   75.0  10.06  .0731    0.000   204    7    100.0   10 
 9/01/26  2:00p   59.8   59.8   59.5    93   57.8  11.0     S   1.83  15.0   SSE   56.1   60.2   56.5   65.3  29.910  0.00  0.00   621     8.90    788     4.6  0.33   5.4   0.036   0.000   74.7    55   57.5   75.1  10.06  .0731    0.011   203    7    100.0   10 
 9/01/26  2:10p   59.7   59.8   59.6    93   57.7  10.0     S   1.67  16.0   SSE   56.6   60.0   56.9   64.8  29.912  0.00  0.00   513     7.35    573     3.9  0.28   4.4   0.037   0.000   74.7    55   57.5   75.1  10.06  .0731    0.000   203    7    100.0   10 
 9/01/26  2:20p   59.9   59.9   59.7    93   57.9  11.0     S   1.83  19.0   SSE   56.2   60.3   56.6   63.2  29.911  0.00  0.00   434     6.22    666     3.4  0.24   3.8   0.035   0.000   74.7    55   57.5   75.1  10.06  .0731    0.000   203    7    100.0   10 
 9/01/26  2:30p   59.8   59.9   59.7    93   57.8  10.0     S   1.67  15.0   SSE   56.8   60.2   57.2   64.7  29.913  0.00  0.00   474     6.79    810     3.5  0.25   4.5   0.036   0.000   74.7    55   57.5   75.1  10.06  .0731    0.000   204    7    100.0   10 
 9/01/26  2:40p   60.0   60.0   59.8    93   58.0  12.0     S   2.00  17.0   SSE   55.8   60.4   56.2   61.5  29.915  0.00  0.00   358     5.13    408     3.1  0.22   4.1   0.035   0.000   74.8    55   57.5   75.2  10.05  .0731    0.000   200    7    100.0   10 
 9/01/26  2:50p   60.0   60.0   59.7    93   58.0  11.0     S   1.83  16.0   SSE   56.3   60.4   56.7   63.0  29.916  0.00  0.00   406     5.82    489     2.8  0.20   3.2   0.035   0.000   74.9    55   57.6   75.4  10.05  .0730    0.000   203    7    100.0   10 
 9/01/26  3:00p   60.1   60.1   59.8    93   58.1  11.0     S   1.83  16.0   SSE   56.4   60.5   56.8   63.9  29.918  0.00  0.00   451     6.47    501     3.0  0.21   3.1   0.034   0.000   74.9    55   57.6   75.4  10.05  .0730    0.010   204    7    100.0   10 
 9/01/26  3:10p   59.6   60.1   59.6    93   57.6  11.0     S   1.83  17.0   SSE   55.9   59.9   56.2   60.2  29.918  0.00  0.00   262     3.76    401     2.0  0.14   2.9   0.038   0.000   75.0    55   57.7   75.5  10.05  .0730    0.000   202    7    100.0   10 
 9/01/26  3:20p   59.3   59.6   59.3    94   57.6  11.0     S   1.83  16.0     S   55.5   59.7   55.9   58.8  29.921  0.00  0.00   201     2.88    267     1.4  0.10   1.7   0.040   0.000   74.9    55   57.6   75.4  10.05  .0730    0.000   203    7    100.0   10 
 9/01/26  3:30p   59.2   59.4   59.1    94   57.5  10.0     S   1.67  16.0   SSE   56.0   59.6   56.4   59.7  29.919  0.00  0.00   211     3.02    299     1.4  0.10   1.8   0.040   0.000   74.9    55   57.6   75.4  10.05  .0730    0.000   201    7    100.0   10 
 9/01/26  3:40p   59.4   59.4   59.1    94   57.7  10.0     S   1.67  16.0     S   56.3   59.8   56.7   61.5  29.919  0.00  0.00   286     4.10    503     1.6  0.11   2.6   0.039   0.000   74.8    55   57.5   75.2  10.05  .0731    0.000   202    7    100.0   10 
 9/01/26  3:50p   59.6   59.7   59.4    94   57.9  10.0     S   1.67  14.0   SSE   56.5   60.0   56.9   63.9  29.918  0.00  0.00   401     5.75    554     2.5  0.18   3.0   0.038   0.000   74.9    55   57.6   75.4  10.05  .0730    0.000   205    7    100.0   10 
 9/01/26  4:00p   59.5   59.7   59.5    94   57.8  10.0     S   1.67  15.0     S   56.4   59.9   56.8   61.5  29.917  0.00  0.00   271     3.88    325     1.8  0.13   2.1   0.038   0.000   74.9    55   57.6   75.4  10.05  .0730    0.006   202    7    100.0   10 
 9/01/26  4:10p   59.5   59.6   59.4    94   57.8  10.0     S   1.67  15.0   SSE   56.4   59.9   56.8   60.2  29.913  0.00  0.00   206     2.95    244     1.5  0.11   1.5   0.038   0.000   74.9    55   57.6   75.4  10.05  .0730    0.000   201    7    100.0   10 
 9/01/26  4:20p   59.7   59.8   59.5    94   58.0  11.0     S   1.83  17.0   SSE   56.0   60.1   56.4   62.6  29.910  0.00  0.00   346     4.96    408     1.9  0.14   2.1   0.037   0.000   75.0    55   57.7   75.5  10.05  .0730    0.000   203    7    100.0   10 
 9/01/26  4:30p   59.7   59.8   59.5    94   58.0  11.0     S   1.83  19.0   SSE   56.0   60.1   56.4   60.6  29.907  0.00  0.00   241     3.45    357     1.3  0.09   1.9   0.037   0.000   75.0    55   57.7   75.5  10.05  .0730    0.000   203    7    100.0   10 
 9/01/26  4:40p   59.5   59.7   59.4    94   57.8  11.0     S   1.83  17.0     S   55.8   59.9   56.2   59.6  29.905  0.00  0.00   198     2.84    269     1.1  0.08   1.4   0.038   0.000   75.0    55   57.7   75.5  10.05  .0730    0.000   202    7    100.0   10 
 9/01/26  4:50p   59.6   59.7   59.4    94   57.9  11.0     S   1.83  17.0     S   55.9   60.0   56.3   61.0  29.902  0.00  0.00   247     3.54    302     1.3  0.09   1.4   0.038   0.000   75.0    55   57.7   75.5  10.05  .0730    0.000   202    7    100.0   10 
 9/01/26  5:00p   59.7   59.8   59.6    94   58.0  11.0     S   1.83  18.0     S   56.0   60.1   56.4   60.3  29.898  0.00  0.00   209     3.00    271     1.1  0.08   1.2   0.037   0.000   74.9    55   57.6   75.4  10.05  .0730    0.005   204    7    100.0   10 
 9/01/26  5:10p   59.9   59.9   59.6    94   58.2  11.0     S   1.83  19.0   SSE   56.2   60.3   56.6   61.3  29.899  0.00  0.00   234     3.35    278     1.1  0.08   1.2   0.035   0.000   74.8    56   58.1   75.3  10.25  .0730    0.000   201    7    100.0   10 
 9/01/26  5:20p   60.4   60.4   59.7    94   58.7  11.0     S   1.83  18.0   SSE   56.8   60.8   57.2   64.2  29.897  0.00  0.00   329     4.72    455     1.3  0.09   1.4   0.032   0.000   74.6    56   57.9   75.1  10.26  .0730    0.000   202    7    100.0   10 
 9/01/26  5:30p   60.2   60.4   60.2    94   58.5  12.0     S   2.00  21.0   SSE   56.0   60.6   56.4   60.9  29.898  0.00  0.00   219     3.14    260     0.9  0.06   1.0   0.033   0.000   74.6    56   57.9   75.1  10.26  .0730    0.000   203    7    100.0   10 
 9/01/26  5:40p   59.8   60.2   59.8    94   58.1  13.0     S   2.17  20.0     S   55.1   60.2   55.5   58.9  29.893  0.00  0.00   171     2.45    188     0.7  0.05   0.8   0.036   0.000   74.4    56   57.7   74.8  10.26  .0730    0.000   201    7    100.0   10 
 9/01/26  5:50p   60.1   60.1   59.8    94   58.4  13.0     S   2.17  20.0   SSE   55.4   60.5   55.8   61.4  29.893  0.00  0.00   258     3.70    299     0.7  0.05   0.8   0.034   0.000   74.4    56   57.7   74.8  10.26  .0730    0.000   203    7    100.0   10 
 9/01/26  6:00p   60.3   60.4   60.1    94   58.6  12.0     S   2.00  23.0     S   56.1   60.7   56.5   60.1  29.894  0.00  0.00   164     2.35    188     0.6  0.04   0.7   0.033   0.000   74.5    56   57.8   74.9  10.26  .0730    0.005   203    7    100.0   10 
 9/01/26  6:10p   60.4   60.5   60.3    93   58.4  12.0     S   2.00  20.0     S   56.2   60.8   56.6   61.1  29.893  0.00  0.00   190     2.72    197     0.4  0.03   0.6   0.032   0.000   74.6    56   57.9   75.1  10.26  .0730    0.000   199    7    100.0   10 
 9/01/26  6:20p   60.7   60.7   60.5    93   58.7  10.0     S   1.67  19.0   SSE   57.8   61.1   58.2   63.3  29.894  0.00  0.00   195     2.80    221     0.0  0.00   0.0   0.030   0.000   74.7    56   58.0   75.2  10.26  .0730    0.000   205    7    100.0   10 
 9/01/26  6:30p   61.0   61.0   60.7    93   59.0   9.0     S   1.50  16.0     S   58.9   61.5   59.4   61.7  29.893  0.00  0.00    98     1.40    141     0.0  0.00   0.0   0.028   0.000   74.7    56   58.0   75.2  10.26  .0730    0.000   203    7    100.0   10 
 9/01/26  6:40p   60.7   61.0   60.7    92   58.4  10.0     S   1.67  18.0     S   57.8   61.1   58.2   59.0  29.894  0.00  0.00    58     0.83     65     0.0  0.00   0.0   0.030   0.000   74.6    56   57.9   75.1  10.26  .0730    0.000   203    7    100.0   10 
 9/01/26  6:50p   60.0   60.7   60.0    93   58.0  14.0     S   2.33  22.0     S   54.9   60.4   55.3   55.9  29.897  0.00  0.00    54     0.77     56     0.0  0.00   0.0   0.035   0.000   74.6    56   57.9   75.1  10.26  .0730    0.000   203    7    100.0   10 
 9/01/26  7:00p   59.6   60.1   59.6    93   57.6  15.0     S   2.50  23.0     S   54.1   59.9   54.4   54.8  29.901  0.00  0.00    50     0.72     54     0.0  0.00   0.0   0.038   0.000   74.6    56   57.9   75.1  10.26  .0730    0.003   203    7    100.0   10 
 9/01/26  7:10p   59.6   59.7   59.5    94   57.9  12.0     S   2.00  22.0   SSE   55.3   60.0   55.7   56.4  29.900  0.00  0.00    55     0.79     63     0.0  0.00   0.0   0.038   0.000   74.6    56   57.9   75.1  10.26  .0730    0.000   204    7    100.0   10 
 9/01/26  7:20p   59.7   59.7   59.6    93   57.7  13.0     S   2.17  23.0     S   54.9   60.0   55.2   54.0  29.899  0.00  0.00    37     0.53     51     0.0  0.00   0.0   0.037   0.000   74.5    56   57.8   74.9  10.26  .0730    0.000   203    7    100.0   10 
 9/01/26  7:30p   59.6   59.7   59.6    93   57.6  12.0     S   2.00  24.0   SSE   55.3   59.9   55.6   54.0  29.903  0.00  0.00    19     0.27     30     0.0  0.00   0.0   0.038   0.000   74.4    56   57.7   74.8  10.26  .0731    0.000   203    7    100.0   10 
 9/01/26  7:40p   59.7   59.7   59.6    93   57.7  13.0     S   2.17  21.0     S   54.9   60.0   55.2   53.5  29.901  0.00  0.00     9     0.13     11     0.0  0.00   0.0   0.037   0.000   74.4    56   57.7   74.8  10.26  .0731    0.000   205    7    100.0   10 
 9/01/26  7:50p   59.7   59.8   59.6    93   57.7  13.0     S   2.17  20.0     S   54.9   60.0   55.2   53.4  29.902  0.00  0.00     2     0.03      7     0.0  0.00   0.0   0.037   0.000   74.3    56   57.6   74.7  10.26  .0731    0.000   202    7    100.0   10 
 9/01/26  8:00p   59.9   59.9   59.7    93   57.9  13.0     S   2.17  23.0     S   55.2   60.3   55.6   53.7  29.902  0.00  0.00     0     0.00      0     0.0  0.00   0.0   0.035   0.000   74.3    56   57.6   74.7  10.26  .0731    0.001   203    7    100.0   10 
 9/01/26  8:10p   60.0   60.1   59.8    93   58.0  12.0     S   2.00  21.0     S   55.8   60.4   56.2   54.2  29.900  0.00  0.00     0     0.00      0     0.0  0.00   0.0   0.035   0.000   74.3    56   57.6   74.7  10.26  .0731    0.000   204    7    100.0   10 
 9/01/26  8:20p   60.1   60.1   60.0    92   57.8  12.0     S   2.00  21.0    SW   55.9   60.4   56.2   54.2  29.901  0.00  0.00     0     0.00      0     0.0  0.00   0.0   0.034   0.000   74.2    56   57.5   74.6  10.27  .0731    0.000   203    7    100.0   10 
 9/01/26  8:30p   60.0   60.1   60.0    92   57.7  11.0     S   1.83  18.0     S   56.3   60.3   56.6   54.6  29.901  0.00  0.00     0     0.00      0     0.0  0.00   0.0   0.035   0.000   74.2    56   57.5   74.6  10.27  .0731    0.000   200    7    100.0   10 
 9/01/26  8:40p   60.1   60.1   60.0    92   57.8  12.0     S   2.00  20.0     S   55.9   60.4   56.2   54.2  29.898  0.00  0.00     0     0.00      0     0.0  0.00   0.0   0.034   0.000   74.1    56   57.4   74.4  10.27  .0731    0.000   201    7    100.0   10 
 9/01/26  8:50p   60.2   60.2   60.1    92   57.9  10.0     S   1.67  20.0     S   57.2   60.6   57.6   55.5  29.899  0.00  0.00     0     0.00      0     0.0  0.00   0.0   0.033   0.000   74.1    56   57.4   74.4  10.27  .0731    0.000   203    7    100.0   10 
 9/01/26  9:00p   60.5   60.6   60.2    90   57.6  11.0     S   1.83  20.0   SSE   56.9   60.8   57.2   55.2  29.901  0.00  0.00     0     0.00      0     0.0  0.00   0.0   0.031   0.000   74.0    56   57.3   74.3  10.27  .0731    0.001   203    7    100.0   10 
 9/01/26  9:10p   60.3   60.5   60.3    90   57.4  10.0     S   1.67  18.0   SSE   57.3   60.6   57.6   55.5  29.903  0.00  0.00     0     0.00      0     0.0  0.00   0.0   0.033   0.000   74.0    56   57.3   74.3  10.27  .0731    0.000   203    7    100.0   10 
 9/01/26  9:20p   59.8   60.3   59.8    90   56.9  12.0     S   2.00  20.0   SSE   55.6   60.1   55.9   53.9  29.906  0.00  0.00     0     0.00      0     0.0  0.00   0.0   0.036   0.000   74.0    56   57.3   74.3  10.27  .0731    0.000   202    7    100.0   10 
 9/01/26  9:30p   59.8   59.9   59.7    91   57.2  10.0     S   1.67  18.0   SSE   56.8   60.1   57.1   55.0  29.906  0.00  0.00     0     0.00      0     0.0  0.00   0.0   0.036   0.000   74.0    56   57.3   74.3  10.27  .0731    0.000   205    7    100.0   10 
 9/01/26  9:40p   59.7   59.9   59.7    91   57.1   9.0     S   1.50  17.0   SSE   57.3   60.0   57.6   55.4  29.906  0.00  0.00     0     0.00      0     0.0  0.00   0.0   0.037   0.000   73.9    56   57.2   74.2  10.27  .0732    0.000   201    7    100.0   10 
 9/01/26  9:50p   59.7   59.8   59.6    91   57.1   9.0     S   1.50  19.0     S   57.3   60.0   57.6   55.4  29.898  0.00  0.00     0     0.00      0     0.0  0.00   0.0   0.037   0.000   73.9    56   57.2   74.2  10.27  .0731    0.000   203    7    100.0   10 
 9/01/26 10:00p   60.0   60.1   59.7    91   57.4   9.0     S   1.50  15.0   SSW   57.7   60.3   58.0   55.8  29.898  0.00  0.00     0     0.00      0     0.0  0.00   0.0   0.035   0.000   73.8    56   57.1   74.1  10.27  .0732    0.001   202    7    100.0   10 
 9/01/26 10:10p   60.4   60.4   60.0    90   57.5  10.0     S   1.67  20.0     S   57.4   60.7   57.7   55.6  29.897  0.00  0.00     0     0.00      0     0.0  0.00   0.0   0.032   0.000   73.8    56   57.1   74.1  10.27  .0732    0.000   204    7    100.0   10 
 9/01/26 10:20p   60.4   60.5   60.3    90   57.5  12.0     S   2.00  23.0     S   56.2   60.7   56.5   54.5  29.896  0.00  0.00     0     0.00      0     0.0  0.00   0.0   0.032   0.000   73.8    56   57.1   74.1  10.27  .0732    0.000   203    7    100.0   10 
 9/01/26 10:30p   60.4   60.5   60.3    90   57.5  12.0     S   2.00  24.0   SSE   56.2   60.7   56.5   54.5  29.894  0.00  0.00     0     0.00      0     0.0  0.00   0.0   0.032   0.000   73.8    56   57.1   74.1  10.27  .0732    0.000   200    7    100.0   10 
 9/01/26 10:40p   60.4   60.4   60.2    90   57.5  11.0     S   1.83  24.0   SSE   56.8   60.7   57.1   55.1  29.894  0.00  0.00     0     0.00      0     0.0  0.00   0.0   0.032   0.000   73.7    56   57.0   73.9  10.28  .0732    0.000   204    7    100.0   10 
 9/01/26 10:50p   60.1   60.4   60.0    90   57.2  13.0     S   2.17  23.0   ESE   55.4   60.4   55.7   53.8  29.890  0.00  0.00     0     0.00      0     0.0  0.00   0.0   0.034   0.000   73.7    56   57.0   73.9  10.28  .0732    0.000   202    7    100.0   10 
 9/01/26 11:00p   60.0   60.1   60.0    91   57.4  14.0     S   2.33  24.0   SSE   54.9   60.3   55.2   53.4  29.889  0.00  0.00     0     0.00      0     0.0  0.00   0.0   0.035   0.000   73.6    56   56.9   73.8  10.28  .0732    0.001   203    7    100.0   10 
 9/01/26 11:10p   59.4   60.1   59.4    91   56.8  15.0     S   2.50  24.0     S   53.8   59.7   54.1   52.3  29.887  0.00  0.00     0     0.00      0     0.0  0.00   0.0   0.039   0.000   73.6    56   56.9   73.8  10.28  .0732    0.000   203    7    100.0   10 
 9/01/26 11:20p   59.2   59.5   59.2    92   56.9  14.0     S   2.33  23.0    SE   54.0   59.5   54.3   52.5  29.880  0.00  0.00     0     0.00      0     0.0  0.00   0.0   0.040   0.000   73.6    56   56.9   73.8  10.28  .0732    0.000   203    7    100.0   10 
 9/01/26 11:30p   59.4   59.4   59.2    92   57.1  11.0     S   1.83  21.0     S   55.6   59.7   55.9   53.9  29.878  0.00  0.00     0     0.00      0     0.0  0.00   0.0   0.039   0.000   73.5    56   56.8   73.7  10.28  .0732    0.000   203    7    100.0   10 
 9/01/26 11:40p   59.4   59.5   59.2    92   57.1  12.0     S   2.00  22.0     S   55.1   59.7   55.4   53.4  29.876  0.00  0.00     0     0.00      0     0.0  0.00   0.0   0.039   0.000   73.5    56   56.8   73.7  10.28  .0732    0.000   201    7    100.0   10 
 9/01/26 11:50p   60.1   60.1   59.5    91   57.5  11.0     S   1.83  19.0   SSE   56.4   60.4   56.7   54.7  29.874  0.00  0.00     0     0.00      0     0.0  0.00   0.0   0.034   0.000   73.5    56   56.8   73.7  10.28  .0732    0.000   202    7    100.0   10 
 9/02/26 12:00a   60.4   60.4   60.1    90   57.5   9.0     S   1.50  22.0     S   58.2   60.7   58.5   56.3  29.874  0.00  0.00     0     0.00      0     0.0  0.00   0.0   0.032   0.000   73.4    56   56.7   73.6  10.28  .0732    0.001   200    7    100.0   10 
 9/02/26 12:10a   60.5   60.6   60.4    89   57.2  12.0     S   2.00  23.0     S   56.4   60.8   56.7   54.7  29.870  0.00  0.00     0     0.00      0     0.0  0.00   0.0   0.031   0.000   73.4    56   56.7   73.6  10.28  .0732    0.000   203    7    100.0   10 
 9/02/26 12:20a   59.3   60.4   59.2    91   56.7  15.0     S   2.50  25.0   SSE   53.7   59.6   54.0   52.2  29.873  0.00  0.00     0     0.00      0     0.0  0.00   0.0   0.040   0.000   73.4    56   56.7   73.6  10.28  .0732    0.000   202    7    100.0   10 
 9/02/26 12:30a   59.2   59.4   59.2    91   56.6  14.0     S   2.33  22.0     S   54.0   59.5   54.3   52.5  29.873  0.00  0.00     0     0.00      0     0.0  0.00   0.0   0.040   0.000   73.4    56   56.7   73.6  10.28  .0732    0.000   203    7    100.0   10 
 9/02/26 12:40a   59.4   59.4   59.1    91   56.8  14.0     S   2.33  23.0   SSE   54.2   59.7   54.5   52.7  29.869  0.00  0.00     0     0.00      0     0.0  0.00   0.0   0.039   0.000   73.3    56   56.7   73.4  10.28  .0732    0.000   205    7    100.0   10 
 9/02/26 12:50a   59.4   59.4   59.3    92   57.1  14.0     S   2.33  25.0     S   54.2   59.7   54.5   52.7  29.870  0.00  0.00     0     0.00      0     0.0  0.00   0.0   0.039   0.000   73.3    56   56.7   73.4  10.28  .0732    0.000   204    7    100.0   10 
 9/02/26  1:00a   59.3   59.4   59.3    91   56.7  14.0     S   2.33  22.0     S   54.1   59.6   54.4   52.6  29.870  0.00  0.00     0     0.00      0     0.0  0.00   0.0   0.040   0.000   73.2    56   56.6   73.3  10.29  .0732    0.001   202    7    100.0   10 
 9/02/26  1:10a   59.3   59.4   59.3    91   56.7  14.0     S   2.33  23.0     S   54.1   59.6   54.4   52.6  29.866  0.00  0.00     0     0.00      0     0.0  0.00   0.0   0.040   0.000   73.2    56   56.6   73.3  10.29  .0732    0.000   205    7    100.0   10 
 9/02/26  1:20a   59.5   59.5   59.3    91   56.9  13.0     S   2.17  22.0     S   54.7   59.8   55.0   53.1  29.861  0.00  0.00     0     0.00      0     0.0  0.00   0.0   0.038   0.000   73.2    56   56.6   73.3  10.29  .0732    0.000   201    7    100.0   10 
 9/02/26  1:30a   59.4   59.5   59.4    91   56.8  13.0     S   2.17  22.0     S   54.6   59.7   54.9   53.0  29.858  0.00  0.00     0     0.00      0     0.0  0.00   0.0   0.039   0.000   73.1    56   56.5   73.2  10.29  .0732    0.000   202    7    100.0   10 
 9/02/26  1:40a   59.5   59.5   59.3    91   56.9  13.0     S   2.17  27.0   SSE   54.7   59.8   55.0   53.1  29.853  0.00  0.00     0     0.00      0     0.0  0.00   0.0   0.038   0.000   73.1    56   56.5   73.2  10.29  .0732    0.000   204    7    100.0   10 
 9/02/26  1:50a   59.6   59.6   59.5    90   56.7  10.0     S   1.67  19.0   SSE   56.5   59.9   56.8   54.7  29.852  0.00  0.00     0     0.00      0     0.0  0.00   0.0   0.038   0.000   73.1    56   56.5   73.2  10.29  .0732    0.000   204    7    100.0   10 
 9/02/26  2:00a   59.9   59.9   59.6    90   57.0  10.0     S   1.67  18.0     S   56.9   60.2   57.2   55.1  29.845  0.00  0.00     0     0.00      0     0.0  0.00   0.0   0.035   0.000   73.0    56   56.4   73.1  10.29  .0732    0.001   201    7    100.0   10 
 9/02/26  2:10a   60.3   60.3   59.9    89   57.0   8.0     S   1.33  17.0     S   58.9   60.6   59.2   56.9  29.841  0.00  0.00     0     0.00      0     0.0  0.00   0.0   0.033   0.000   73.0    56   56.4   73.1  10.29  .0732    0.000   203    7    100.0   10 
 9/02/26  2:20a   60.5   60.5   60.2    88   56.9   7.0     S   1.17  13.0   SSE   59.8   60.8   60.1   57.7  29.834  0.00  0.00     0     0.00      0     0.0  0.00   0.0   0.031   0.000   73.0    56   56.4   73.1  10.29  .0731    0.000   203    7    100.0   10 
 9/02/26  2:30a   61.2   61.2   60.5    86   57.0   8.0     S   1.33  17.0   SSE   59.9   61.5   60.2   57.9  29.827  0.00  0.00     0     0.00      0     0.0  0.00   0.0   0.026   0.000   72.9    56   56.3   72.9  10.29  .0731    0.000   203    7    100.0   10 
 9/02/26  2:40a   61.5   61.5   61.2    85   56.9   7.0     S   1.17  15.0     S   61.1   61.8   61.4   59.0  29.823  0.00  0.00     0     0.00      0     0.0  0.00   0.0   0.024   0.000   72.9    56   56.3   72.9  10.29  .0731    0.000   203    7    100.0   10 
 9/02/26  2:50a   62.0   62.0   61.5    83   56.8   9.0     S   1.50  20.0   SSE   60.0   62.3   60.3   58.1  29.818  0.00  0.00     0     0.00      0     0.0  0.00   0.0   0.021   0.000   72.9    56   56.3   72.9  10.29  .0731    0.000   203    7    100.0   10 
 9/02/26  3:00a   62.3   62.3   62.0    82   56.7  11.0     S   1.83  24.0   SSE   59.0   62.6   59.3   57.3  29.814  0.00  0.00     0     0.00      0     0.0  0.00   0.0   0.019   0.000   72.9    56   56.3   72.9  10.29  .0731    0.001   204    7    100.0   10 
 9/02/26  3:10a   62.3   62.4   62.2    81   56.4  11.0     S   1.83  23.0   SSE   59.0   62.6   59.3   57.3  29.813  0.00  0.00     0     0.00      0     0.0  0.00   0.0   0.019   0.000   72.9    56   56.3   72.9  10.29  .0731    0.000   202    7    100.0   10 
 9/02/26  3:20a   62.3   62.4   62.2    81   56.4   9.0     S   1.50  18.0     S   60.4   62.6   60.7   58.5  29.809  0.00  0.00     0     0.00      0     0.0  0.00   0.0   0.019   0.000   72.8    56   56.2   72.8  10.29  .0731    0.000   204    7    100.0   10 
 9/02/26  3:30a   62.3   62.3   62.2    81   56.4   9.0     S   1.50  16.0   SSE   60.4   62.6   60.7   58.5  29.802  0.00  0.00     0     0.00      0     0.0  0.00   0.0   0.019   0.000   72.8    56   56.2   72.8  10.29  .0731    0.000   199    7    100.0   10 
Email: AdamSPAM@StormwatchersRetreat.com (To send me email remove the word 'SPAM' from my email address.)